Time;durP1;ratioP1;P1;durP2;ratioP2;P2;SDS_P1;SDS_P2;PMS_P1;PMS_P2;Temp;Humidity;BMP_temperature;BMP_pressure;BME280_temperature;BME280_humidity;BME280_pressure;Samples;Min_cycle;Max_cycle;Signal;HPM_P1;HPM_P2
2023/02/12 00:01:10;;;;;;;23.75;14.57;;;4.00;96.70;;;;;;5004376;28;20041;-76
2023/02/12 00:03:39;;;;;;;23.95;15.32;;;4.10;96.70;;;;;;5022239;28;20077;-75
2023/02/12 00:06:09;;;;;;;23.13;14.60;;;4.20;96.70;;;;;;5018561;28;20057;-75
2023/02/12 00:08:39;;;;;;;22.48;15.10;;;4.00;96.70;;;;;;5021872;28;20049;-75
2023/02/12 00:11:10;;;;;;;25.17;15.23;;;3.90;96.70;;;;;;5027045;28;20044;-76
2023/02/12 00:13:38;;;;;;;26.02;15.70;;;4.00;96.70;;;;;;5004112;28;20061;-75
2023/02/12 00:16:10;;;;;;;21.77;15.13;;;3.90;96.70;;;;;;5020829;28;20088;-76
2023/02/12 00:18:38;;;;;;;25.95;16.33;;;3.80;96.70;;;;;;5024633;28;20037;-77
2023/02/12 00:21:10;;;;;;;25.05;15.70;;;3.90;96.70;;;;;;5021544;28;20049;-77
2023/02/12 00:23:40;;;;;;;22.73;15.18;;;3.90;96.70;;;;;;5020165;28;20136;-75
2023/02/12 00:26:09;;;;;;;22.85;14.55;;;3.90;96.70;;;;;;5021960;28;20534;-75
2023/02/12 00:28:40;;;;;;;23.67;14.73;;;3.90;96.70;;;;;;5005072;28;20143;-75
2023/02/12 00:31:12;;;;;;;24.40;14.68;;;4.00;96.70;;;;;;5003405;28;20096;-76
2023/02/12 00:33:41;;;;;;;21.42;13.32;;;4.00;96.70;;;;;;5020455;28;20588;-77
2023/02/12 00:36:12;;;;;;;19.88;13.63;;;4.00;96.70;;;;;;5022909;28;20547;-73
2023/02/12 00:38:40;;;;;;;21.17;13.65;;;3.90;96.70;;;;;;5023767;28;20049;-75
2023/02/12 00:41:10;;;;;;;21.67;14.75;;;3.80;96.70;;;;;;5020155;28;20087;-74
2023/02/12 00:43:38;;;;;;;23.10;15.80;;;3.80;96.70;;;;;;5020130;28;20667;-77
2023/02/12 00:46:06;;;;;;;21.40;15.43;;;3.80;96.70;;;;;;5027691;28;20055;-74
2023/02/12 00:48:36;;;;;;;23.60;16.67;;;3.80;96.70;;;;;;5006460;28;20080;-76
2023/02/12 00:51:05;;;;;;;23.35;15.35;;;3.70;96.70;;;;;;5017383;28;20037;-75
2023/02/12 00:53:33;;;;;;;20.65;13.80;;;3.70;96.70;;;;;;5004613;28;20620;-76
2023/02/12 00:56:01;;;;;;;22.02;13.32;;;3.60;96.70;;;;;;5025682;28;20087;-74
2023/02/12 00:58:29;;;;;;;18.63;13.15;;;3.60;96.70;;;;;;5024267;28;20551;-76
2023/02/12 01:00:59;;;;;;;20.50;13.35;;;3.50;96.70;;;;;;5025367;28;20053;-78
2023/02/12 01:03:27;;;;;;;19.80;13.00;;;3.50;96.70;;;;;;5038811;28;20055;-76
2023/02/12 01:05:56;;;;;;;17.65;11.45;;;3.50;96.70;;;;;;5041066;28;20040;-74
2023/02/12 01:08:29;;;;;;;13.55;10.43;;;3.50;96.70;;;;;;5032780;28;20145;-76
2023/02/12 01:10:59;;;;;;;16.58;10.13;;;3.50;96.70;;;;;;5037849;28;20045;-74
2023/02/12 01:13:29;;;;;;;14.30;8.75;;;3.40;96.70;;;;;;5033125;28;20056;-75
2023/02/12 01:16:07;;;;;;;12.25;8.10;;;3.30;96.70;;;;;;5030656;28;20436;-73
2023/02/12 01:18:37;;;;;;;13.25;7.75;;;3.10;96.70;;;;;;5028815;28;20068;-74
2023/02/12 01:21:12;;;;;;;11.82;8.10;;;3.10;96.70;;;;;;5027744;28;20041;-74
2023/02/12 01:23:41;;;;;;;12.38;7.72;;;3.10;96.70;;;;;;5042280;28;20072;-74
2023/02/12 01:26:12;;;;;;;11.55;7.15;;;3.20;96.70;;;;;;5043336;28;20048;-73
2023/02/12 01:28:41;;;;;;;14.77;9.40;;;3.20;96.70;;;;;;5036373;28;20042;-75
2023/02/12 01:31:12;;;;;;;14.80;9.57;;;3.30;96.70;;;;;;5028305;28;20060;-75
2023/02/12 01:33:41;;;;;;;18.45;10.35;;;3.30;96.70;;;;;;5036376;28;20626;-75
2023/02/12 01:36:11;;;;;;;14.32;9.93;;;3.20;96.70;;;;;;5037114;28;20457;-75
2023/02/12 01:38:40;;;;;;;15.95;10.52;;;3.30;96.70;;;;;;5018019;28;20127;-71
2023/02/12 01:41:10;;;;;;;17.40;10.40;;;3.10;96.70;;;;;;5048324;28;20049;-71
2023/02/12 01:43:39;;;;;;;18.38;10.68;;;3.20;96.70;;;;;;5039984;28;20053;-71
2023/02/12 01:46:11;;;;;;;18.95;11.93;;;3.20;96.70;;;;;;5039054;28;20047;-71
2023/02/12 01:48:44;;;;;;;20.23;10.95;;;3.20;96.70;;;;;;5041490;28;20056;-71
2023/02/12 01:51:18;;;;;;;16.92;11.43;;;3.10;96.70;;;;;;5038097;28;20045;-72
2023/02/12 01:53:50;;;;;;;18.88;11.30;;;3.10;96.70;;;;;;5039507;28;20501;-70
2023/02/12 01:56:20;;;;;;;16.65;11.15;;;3.00;96.70;;;;;;5027372;28;20050;-72
2023/02/12 01:58:51;;;;;;;19.67;11.88;;;3.00;96.70;;;;;;5036415;28;20061;-71
2023/02/12 02:01:22;;;;;;;18.38;11.82;;;3.10;96.70;;;;;;5039760;28;20132;-71
2023/02/12 02:03:55;;;;;;;19.92;11.98;;;3.20;96.70;;;;;;5026017;28;20037;-71
2023/02/12 02:06:28;;;;;;;24.20;12.63;;;3.20;96.70;;;;;;5033003;28;20560;-71
2023/02/12 02:08:57;;;;;;;21.13;11.55;;;3.10;96.70;;;;;;5048771;28;20045;-71
2023/02/12 02:17:11;;;;;;;12.98;8.38;;;2.90;96.70;;;;;;5026448;28;20045;-71
2023/02/12 02:20:20;;;;;;;13.27;7.95;;;2.90;96.70;;;;;;5032536;28;20140;-71
2023/02/12 02:22:58;;;;;;;9.93;7.38;;;2.90;96.70;;;;;;5034985;28;20056;-71
2023/02/12 02:25:53;;;;;;;13.05;7.35;;;3.00;96.70;;;;;;5035697;28;20090;-71
2023/02/12 02:28:39;;;;;;;11.50;6.65;;;2.80;96.70;;;;;;5036961;28;20040;-71
2023/02/12 02:31:14;;;;;;;8.85;6.10;;;2.90;96.70;;;;;;5044488;28;20048;-75
2023/02/12 02:33:53;;;;;;;11.63;6.07;;;2.90;96.70;;;;;;5028743;28;20061;-75
2023/02/12 02:36:30;;;;;;;10.43;6.78;;;2.90;96.70;;;;;;5045409;28;20048;-75
2023/02/12 02:39:04;;;;;;;13.25;7.53;;;2.90;96.70;;;;;;5062574;28;20406;-75
2023/02/12 02:41:38;;;;;;;10.77;6.45;;;2.90;96.70;;;;;;5058572;28;20036;-74
2023/02/12 02:44:12;;;;;;;10.65;6.80;;;2.90;96.70;;;;;;5035141;28;20468;-74
2023/02/12 02:46:45;;;;;;;11.93;7.75;;;2.90;96.70;;;;;;5030146;28;20100;-75
2023/02/12 02:49:17;;;;;;;12.52;8.00;;;2.80;96.70;;;;;;5032164;28;20098;-75
2023/02/12 02:51:50;;;;;;;15.85;8.95;;;2.90;96.70;;;;;;5054570;28;20048;-75
2023/02/12 02:54:23;;;;;;;14.60;8.32;;;2.90;96.70;;;;;;5059179;28;20049;-75
2023/02/12 02:56:58;;;;;;;14.90;9.65;;;2.80;96.70;;;;;;5033449;28;20893;-70
2023/02/12 02:59:31;;;;;;;15.07;9.02;;;2.90;96.70;;;;;;5024488;28;20062;-71
2023/02/12 03:02:07;;;;;;;15.13;9.73;;;2.80;96.70;;;;;;5031899;28;20050;-75
2023/02/12 03:04:40;;;;;;;16.42;10.45;;;2.80;96.70;;;;;;5026634;28;20154;-75
2023/02/12 03:07:12;;;;;;;16.55;10.43;;;2.80;96.70;;;;;;5031128;28;20463;-75
2023/02/12 03:09:45;;;;;;;17.63;10.35;;;2.50;96.70;;;;;;5032754;28;20040;-71
2023/02/12 03:12:17;;;;;;;18.42;10.75;;;2.30;96.70;;;;;;5033737;28;20041;-71
2023/02/12 03:14:49;;;;;;;15.70;10.60;;;2.50;96.70;;;;;;5035244;28;20049;-71
2023/02/12 03:17:21;;;;;;;16.75;10.20;;;2.60;96.70;;;;;;5021378;28;20067;-71
2023/02/12 03:19:53;;;;;;;17.45;10.73;;;2.70;96.70;;;;;;5032513;28;20148;-71
2023/02/12 03:22:26;;;;;;;18.98;10.55;;;2.70;96.70;;;;;;5032387;28;20127;-71
2023/02/12 03:24:59;;;;;;;17.80;12.50;;;2.70;96.70;;;;;;5035668;28;20553;-71
2023/02/12 03:27:32;;;;;;;16.95;11.00;;;2.60;96.70;;;;;;5023233;28;20561;-71
2023/02/12 03:30:02;;;;;;;18.70;10.88;;;2.60;96.70;;;;;;5037606;28;20150;-71
2023/02/12 03:32:43;;;;;;;20.33;11.30;;;2.60;96.70;;;;;;5033461;28;20044;-71
2023/02/12 03:35:17;;;;;;;16.58;10.57;;;2.60;96.70;;;;;;5038293;28;21561;-71
2023/02/12 03:37:54;;;;;;;15.57;9.75;;;2.60;96.70;;;;;;5032784;28;20120;-71
2023/02/12 03:40:27;;;;;;;16.15;10.70;;;2.50;96.70;;;;;;5038823;28;20666;-71
2023/02/12 03:43:01;;;;;;;16.48;10.00;;;2.60;96.70;;;;;;5037866;28;20087;-71
2023/02/12 03:45:48;;;;;;;15.10;9.85;;;2.60;96.70;;;;;;5036974;28;20068;-71
2023/02/12 03:48:28;;;;;;;14.60;10.02;;;2.50;96.70;;;;;;5036559;28;20393;-71
2023/02/12 03:51:01;;;;;;;16.48;10.75;;;2.50;96.70;;;;;;5036829;28;20057;-74
2023/02/12 03:53:30;;;;;;;17.30;11.23;;;2.50;96.70;;;;;;5032745;28;20576;-74
2023/02/12 03:56:04;;;;;;;14.80;9.90;;;2.40;96.70;;;;;;5024067;28;20235;-75
2023/02/12 03:58:34;;;;;;;14.23;9.63;;;2.40;96.70;;;;;;5037629;28;20095;-74
2023/02/12 04:01:03;;;;;;;16.80;10.73;;;2.50;96.70;;;;;;5058192;28;20052;-76
2023/02/12 04:03:33;;;;;;;15.45;9.95;;;2.50;96.70;;;;;;5023988;28;20065;-76
2023/02/12 04:06:01;;;;;;;13.27;8.70;;;2.40;96.70;;;;;;5056783;28;20090;-75
2023/02/12 04:08:31;;;;;;;13.85;9.43;;;2.40;96.70;;;;;;5041254;28;20855;-75
2023/02/12 04:11:09;;;;;;;13.15;8.43;;;2.50;96.70;;;;;;5040882;28;20041;-75
2023/02/12 04:13:43;;;;;;;13.18;8.40;;;2.40;96.70;;;;;;5044304;28;20108;-76
2023/02/12 04:16:18;;;;;;;11.80;8.07;;;2.50;96.70;;;;;;5025992;28;20052;-75
2023/02/12 04:18:48;;;;;;;14.25;7.85;;;2.50;96.70;;;;;;5017506;28;20044;-75
2023/02/12 04:21:33;;;;;;;12.50;8.23;;;2.40;96.70;;;;;;5051534;28;20049;-75
2023/02/12 04:24:10;;;;;;;12.75;8.20;;;2.40;96.70;;;;;;5008683;28;20055;-69
2023/02/12 04:26:47;;;;;;;12.07;7.70;;;2.40;96.70;;;;;;5042928;28;20452;-71
2023/02/12 04:29:22;;;;;;;11.90;7.68;;;2.40;96.70;;;;;;5035399;28;20052;-71
2023/02/12 04:31:56;;;;;;;11.27;7.50;;;2.30;96.70;;;;;;5044856;28;20056;-71
2023/02/12 04:34:32;;;;;;;12.40;7.72;;;2.20;96.70;;;;;;5032150;28;20110;-71
2023/02/12 04:37:06;;;;;;;12.13;7.68;;;2.30;96.70;;;;;;5029350;28;20055;-71
2023/02/12 04:39:38;;;;;;;10.93;7.00;;;2.30;96.70;;;;;;5036459;28;20056;-71
2023/02/12 04:42:06;;;;;;;10.77;6.57;;;2.20;96.70;;;;;;5034114;28;20096;-71
2023/02/12 04:44:38;;;;;;;10.38;6.13;;;2.00;96.70;;;;;;5051547;28;20589;-75
2023/02/12 04:47:06;;;;;;;10.32;6.70;;;2.00;96.70;;;;;;5046835;28;20073;-75
2023/02/12 04:49:35;;;;;;;9.60;5.95;;;2.00;96.70;;;;;;5063365;28;20041;-75
2023/02/12 04:52:03;;;;;;;13.15;6.97;;;2.10;96.70;;;;;;5045964;28;20827;-76
2023/02/12 04:54:31;;;;;;;10.57;6.53;;;2.10;96.70;;;;;;5046745;28;20656;-76
2023/02/12 04:56:59;;;;;;;11.02;7.20;;;2.20;96.70;;;;;;5037445;28;20119;-75
2023/02/12 04:59:27;;;;;;;10.55;6.75;;;2.20;96.70;;;;;;5039019;28;20057;-71
2023/02/12 05:01:55;;;;;;;11.27;7.18;;;2.10;96.70;;;;;;5030682;28;20057;-72
2023/02/12 05:04:23;;;;;;;12.35;8.05;;;2.10;96.70;;;;;;5055616;28;20387;-72
2023/02/12 05:06:53;;;;;;;10.55;7.10;;;2.00;96.70;;;;;;5047097;28;20494;-72
2023/02/12 05:09:21;;;;;;;11.73;7.55;;;2.00;96.70;;;;;;5060672;28;20033;-73
2023/02/12 05:11:49;;;;;;;11.70;8.15;;;2.10;96.70;;;;;;5028593;28;20593;-76
2023/02/12 05:14:17;;;;;;;13.18;8.45;;;2.00;96.70;;;;;;5045648;28;20044;-72
2023/02/12 05:16:45;;;;;;;13.45;7.97;;;2.00;96.70;;;;;;5054009;28;20044;-72
2023/02/12 05:19:13;;;;;;;10.15;7.00;;;1.90;96.70;;;;;;5054657;28;20040;-73
2023/02/12 05:21:41;;;;;;;8.65;6.75;;;1.90;96.70;;;;;;5046357;28;20454;-77
2023/02/12 05:24:10;;;;;;;10.93;7.18;;;1.90;96.70;;;;;;5045413;28;20068;-76
2023/02/12 05:26:38;;;;;;;14.70;7.80;;;1.80;96.70;;;;;;5011452;28;20044;-75
2023/02/12 05:29:06;;;;;;;11.23;7.47;;;1.80;96.70;;;;;;5035087;28;20040;-76
2023/02/12 05:31:34;;;;;;;12.23;7.63;;;1.80;96.70;;;;;;5039416;28;20045;-78
2023/02/12 05:34:02;;;;;;;11.38;7.13;;;1.90;96.70;;;;;;5058188;28;20131;-75
2023/02/12 05:36:31;;;;;;;14.75;8.27;;;1.80;96.70;;;;;;5054237;28;20593;-76
2023/02/12 05:38:59;;;;;;;11.77;7.20;;;1.80;96.70;;;;;;5062065;28;20033;-76
2023/02/12 05:41:33;;;;;;;11.07;6.63;;;1.80;96.70;;;;;;5057732;28;20677;-76
2023/02/12 05:44:02;;;;;;;10.18;6.63;;;1.80;96.70;;;;;;5053532;28;20646;-76
2023/02/12 05:46:30;;;;;;;11.57;7.05;;;1.90;96.70;;;;;;5052455;28;20106;-76
2023/02/12 05:48:58;;;;;;;10.80;6.60;;;1.70;96.70;;;;;;5064479;28;20063;-75
2023/02/12 05:51:27;;;;;;;10.82;6.55;;;1.80;96.70;;;;;;5027447;28;20053;-76
2023/02/12 05:53:58;;;;;;;11.57;7.75;;;1.90;96.70;;;;;;5061466;28;20055;-76
2023/02/12 05:56:31;;;;;;;12.13;7.57;;;1.90;96.70;;;;;;5020198;28;20051;-76
2023/02/12 05:59:02;;;;;;;13.20;8.23;;;1.80;96.70;;;;;;5036739;28;20044;-72
2023/02/12 06:01:32;;;;;;;13.15;7.85;;;1.80;96.70;;;;;;5055594;28;20036;-71
2023/02/12 06:04:01;;;;;;;13.98;8.52;;;1.90;96.70;;;;;;5058119;28;20562;-76
2023/02/12 06:06:31;;;;;;;12.98;8.68;;;1.90;96.70;;;;;;5028679;28;20556;-72
2023/02/12 06:09:00;;;;;;;13.00;9.15;;;1.80;96.70;;;;;;5026185;28;20414;-72
2023/02/12 06:11:30;;;;;;;13.18;8.60;;;1.70;96.70;;;;;;5027919;28;20053;-76
2023/02/12 06:14:01;;;;;;;13.70;9.60;;;1.70;96.70;;;;;;5058800;28;20045;-76
2023/02/12 06:16:31;;;;;;;15.32;9.52;;;1.80;96.70;;;;;;5047751;28;20041;-76
2023/02/12 06:19:01;;;;;;;14.48;9.75;;;1.80;96.70;;;;;;5056277;28;20037;-76
2023/02/12 06:21:30;;;;;;;16.60;8.85;;;1.80;96.70;;;;;;5026800;28;20044;-76
2023/02/12 06:23:58;;;;;;;15.48;9.30;;;1.70;96.70;;;;;;5044246;28;20048;-76
2023/02/12 06:26:26;;;;;;;16.05;10.00;;;1.70;96.70;;;;;;5046008;28;20049;-76
2023/02/12 06:28:56;;;;;;;14.77;9.27;;;1.70;96.70;;;;;;5024903;28;20467;-76
2023/02/12 06:31:26;;;;;;;16.30;10.07;;;1.70;96.70;;;;;;5044831;28;20079;-76
2023/02/12 06:33:56;;;;;;;15.27;9.73;;;1.70;96.70;;;;;;5044558;28;20052;-76
2023/02/12 06:36:25;;;;;;;15.18;9.05;;;1.70;96.70;;;;;;5018066;28;20068;-76
2023/02/12 06:38:53;;;;;;;14.52;8.27;;;1.80;96.70;;;;;;5030266;28;20544;-76
2023/02/12 06:41:22;;;;;;;11.38;7.68;;;1.60;96.70;;;;;;5045804;28;20135;-76
2023/02/12 06:43:50;;;;;;;15.15;8.02;;;1.70;96.70;;;;;;5054743;28;20044;-77
2023/02/12 06:46:20;;;;;;;10.50;7.35;;;1.70;96.70;;;;;;5027364;28;20048;-72
2023/02/12 06:48:53;;;;;;;10.32;7.13;;;1.70;96.70;;;;;;5051484;28;20094;-72
2023/02/12 06:51:22;;;;;;;12.65;7.05;;;1.70;96.70;;;;;;5039491;28;20067;-73
2023/02/12 06:53:51;;;;;;;8.85;6.18;;;1.80;96.70;;;;;;5062345;28;20060;-72
2023/02/12 06:56:21;;;;;;;11.02;7.18;;;1.80;96.70;;;;;;5055130;28;20116;-72
2023/02/12 06:58:52;;;;;;;8.98;6.45;;;1.80;96.70;;;;;;5062377;28;20044;-71
2023/02/12 07:01:24;;;;;;;9.88;6.53;;;1.80;96.70;;;;;;5036012;28;20040;-72
2023/02/12 07:03:53;;;;;;;9.77;6.85;;;1.80;96.70;;;;;;5041152;28;20044;-72
2023/02/12 07:06:22;;;;;;;10.38;6.63;;;1.70;96.70;;;;;;5025604;28;20049;-72
2023/02/12 07:08:50;;;;;;;11.18;6.78;;;1.70;96.70;;;;;;5025641;28;20045;-72
2023/02/12 07:11:21;;;;;;;13.75;7.95;;;1.80;96.70;;;;;;5027110;28;20067;-72
2023/02/12 07:13:49;;;;;;;10.43;6.25;;;1.90;96.70;;;;;;5060787;28;21253;-72
2023/02/12 07:16:17;;;;;;;10.38;7.22;;;1.90;96.70;;;;;;5043481;28;20494;-72
2023/02/12 07:18:47;;;;;;;12.48;7.90;;;2.00;96.70;;;;;;5035486;28;20045;-76
2023/02/12 07:21:16;;;;;;;11.55;7.82;;;2.00;96.70;;;;;;5046573;28;20106;-75
2023/02/12 07:23:47;;;;;;;13.73;8.80;;;2.10;96.70;;;;;;5013935;28;20052;-72
2023/02/12 07:26:19;;;;;;;12.27;8.18;;;2.10;96.70;;;;;;5043334;28;20051;-72
2023/02/12 07:28:47;;;;;;;14.75;8.70;;;2.10;96.70;;;;;;5049127;28;20044;-76
2023/02/12 07:31:17;;;;;;;12.32;8.73;;;2.20;96.70;;;;;;5061956;28;20577;-76
2023/02/12 07:33:47;;;;;;;14.20;8.75;;;2.10;96.70;;;;;;5055722;28;20645;-76
2023/02/12 07:36:17;;;;;;;14.88;9.05;;;2.00;96.70;;;;;;5040394;28;20478;-75
2023/02/12 07:38:45;;;;;;;15.48;8.95;;;2.00;96.70;;;;;;5049144;28;20048;-76
2023/02/12 07:41:15;;;;;;;16.92;11.20;;;2.20;96.70;;;;;;5036410;28;20467;-76
2023/02/12 07:43:45;;;;;;;16.27;11.05;;;2.10;96.70;;;;;;5029265;28;20127;-76
2023/02/12 07:46:15;;;;;;;16.35;10.95;;;2.20;96.70;;;;;;5041551;28;20098;-76
2023/02/12 07:48:46;;;;;;;18.50;11.68;;;2.30;96.70;;;;;;5035829;28;20032;-76
2023/02/12 07:51:18;;;;;;;19.17;11.43;;;2.30;96.70;;;;;;5045429;28;20057;-72
2023/02/12 07:53:46;;;;;;;16.08;11.85;;;2.30;96.70;;;;;;5060566;28;20040;-72
2023/02/12 07:56:16;;;;;;;18.60;11.95;;;2.40;96.70;;;;;;5060373;28;20044;-72
2023/02/12 07:58:46;;;;;;;16.15;11.77;;;2.50;96.70;;;;;;5056564;28;20055;-72
2023/02/12 08:01:17;;;;;;;16.58;11.07;;;2.50;96.70;;;;;;5033201;28;20052;-72
2023/02/12 08:03:48;;;;;;;15.95;10.65;;;2.50;96.70;;;;;;5052114;28;20048;-72
2023/02/12 08:06:20;;;;;;;18.23;11.10;;;2.50;96.70;;;;;;5038326;28;20068;-72
2023/02/12 08:08:50;;;;;;;15.93;10.43;;;2.60;96.70;;;;;;5039013;28;20041;-72
2023/02/12 08:11:18;;;;;;;15.55;9.80;;;2.50;96.70;;;;;;5057110;28;20111;-72
2023/02/12 08:13:47;;;;;;;26.08;19.35;;;2.70;96.70;;;;;;5038050;28;20040;-72
2023/02/12 08:16:17;;;;;;;18.50;13.07;;;2.70;96.70;;;;;;5030976;28;20905;-72
2023/02/12 08:18:47;;;;;;;17.98;11.73;;;2.70;96.70;;;;;;5053495;28;20041;-72
2023/02/12 08:21:17;;;;;;;14.68;10.63;;;2.80;96.70;;;;;;5057654;28;20053;-72
2023/02/12 08:23:48;;;;;;;15.20;10.93;;;2.90;96.70;;;;;;5057250;28;20067;-72
2023/02/12 08:26:18;;;;;;;14.68;10.85;;;3.00;96.70;;;;;;5047514;28;20056;-71
2023/02/12 08:28:49;;;;;;;16.88;10.48;;;3.00;96.70;;;;;;5057199;28;20094;-72
2023/02/12 08:31:19;;;;;;;15.00;10.95;;;3.10;96.70;;;;;;5066344;28;20040;-72
2023/02/12 08:33:50;;;;;;;18.05;11.85;;;3.20;96.70;;;;;;5062222;28;20831;-72
2023/02/12 08:36:19;;;;;;;16.52;11.35;;;3.30;96.70;;;;;;5061058;28;20565;-72
2023/02/12 08:38:48;;;;;;;16.90;11.40;;;3.40;96.70;;;;;;5040640;28;20121;-73
2023/02/12 08:41:18;;;;;;;21.02;13.13;;;3.50;96.70;;;;;;5028934;28;20048;-73
2023/02/12 08:43:48;;;;;;;16.17;11.68;;;3.50;96.70;;;;;;5050576;28;20533;-72
2023/02/12 08:46:18;;;;;;;16.63;10.98;;;3.60;96.70;;;;;;5049696;28;20048;-72
2023/02/12 08:48:51;;;;;;;17.23;11.52;;;3.70;96.70;;;;;;5055752;28;20062;-73
2023/02/12 08:51:20;;;;;;;17.02;11.95;;;3.80;96.70;;;;;;5028046;28;20053;-73
2023/02/12 08:53:52;;;;;;;17.10;12.05;;;3.90;96.70;;;;;;5048579;28;20041;-72
2023/02/12 08:56:22;;;;;;;19.98;12.07;;;4.00;96.70;;;;;;5055597;28;20123;-76
2023/02/12 08:58:50;;;;;;;16.58;11.50;;;4.10;96.70;;;;;;5053494;28;20040;-77
2023/02/12 09:01:21;;;;;;;19.05;13.00;;;4.10;96.70;;;;;;5059319;28;20044;-76
2023/02/12 09:03:51;;;;;;;19.10;12.48;;;4.20;96.70;;;;;;5038543;28;20056;-73
2023/02/12 09:06:21;;;;;;;21.08;13.82;;;4.30;96.70;;;;;;5039090;28;20072;-73
2023/02/12 09:08:50;;;;;;;18.98;13.35;;;4.30;96.70;;;;;;5051683;28;20118;-72
2023/02/12 09:11:23;;;;;;;18.77;12.95;;;4.40;96.70;;;;;;5041341;28;20039;-74
2023/02/12 09:13:51;;;;;;;21.00;12.95;;;4.50;96.70;;;;;;5039484;28;20075;-73
2023/02/12 09:16:19;;;;;;;18.73;12.68;;;4.60;96.70;;;;;;5037013;28;20047;-73
2023/02/12 09:18:47;;;;;;;20.10;13.60;;;4.80;96.70;;;;;;5035792;28;20103;-73
2023/02/12 09:21:18;;;;;;;22.63;14.52;;;4.90;96.70;;;;;;5046514;28;20630;-72
2023/02/12 09:23:47;;;;;;;21.38;13.68;;;5.00;96.70;;;;;;5055482;28;20041;-73
2023/02/12 09:26:19;;;;;;;28.77;19.05;;;5.30;96.70;;;;;;5047911;28;20032;-74
2023/02/12 09:28:48;;;;;;;43.10;26.92;;;5.50;96.70;;;;;;5055589;28;20053;-74
2023/02/12 09:31:21;;;;;;;46.10;30.00;;;5.50;96.70;;;;;;5062517;28;20045;-73
2023/02/12 09:33:50;;;;;;;30.10;21.15;;;5.70;96.70;;;;;;5052809;28;20120;-73
2023/02/12 09:36:23;;;;;;;29.40;19.75;;;5.80;96.70;;;;;;5039271;28;20044;-73
2023/02/12 09:38:53;;;;;;;26.00;18.52;;;5.80;96.70;;;;;;5038720;28;20075;-73
2023/02/12 09:41:50;;;;;;;48.00;29.50;;;5.90;96.70;;;;;;5038865;28;20047;-73
2023/02/12 09:44:21;;;;;;;;;;;6.00;96.70;;;;;;5022207;28;20041;-73
2023/02/12 09:46:53;;;;;;;27.90;18.65;;;6.20;96.70;;;;;;5021513;28;19932;-72
2023/02/12 09:49:38;;;;;;;24.90;18.33;;;6.20;96.70;;;;;;5037240;28;20310;-72
2023/02/12 09:52:15;;;;;;;22.60;16.88;;;6.30;96.70;;;;;;5035296;28;20634;-74
2023/02/12 09:54:43;;;;;;;22.48;16.50;;;6.40;96.70;;;;;;5029393;28;20052;-75
2023/02/12 09:57:18;;;;;;;26.35;17.42;;;6.50;96.70;;;;;;5053365;28;20053;-74
2023/02/12 09:59:51;;;;;;;26.95;17.75;;;6.60;96.70;;;;;;5032430;28;20131;-75
2023/02/12 10:02:22;;;;;;;22.23;15.70;;;6.70;96.70;;;;;;5039139;28;20037;-74
2023/02/12 10:04:53;;;;;;;20.90;14.93;;;6.80;96.70;;;;;;5028432;28;20040;-73
2023/02/12 10:07:49;;;;;;;20.48;14.73;;;6.80;96.70;;;;;;5037526;28;20139;-75
2023/02/12 10:10:31;;;;;;;20.15;13.30;;;6.90;96.70;;;;;;5039948;28;20060;-75
2023/02/12 10:13:04;;;;;;;20.88;14.07;;;7.10;96.70;;;;;;5055632;28;20060;-75
2023/02/12 10:15:43;;;;;;;23.60;14.48;;;7.20;96.70;;;;;;5058452;28;20401;-74
2023/02/12 10:18:38;;;;;;;19.63;13.90;;;7.30;96.70;;;;;;5027500;28;20094;-74
2023/02/12 10:21:16;;;;;;;17.90;13.63;;;7.40;96.70;;;;;;5047859;28;20067;-74
2023/02/12 10:24:16;;;;;;;17.98;13.15;;;7.50;96.70;;;;;;5043425;28;20098;-74
2023/02/12 10:26:54;;;;;;;18.25;13.52;;;7.60;96.70;;;;;;5027359;28;20065;-75
2023/02/12 10:29:25;;;;;;;17.23;13.38;;;7.70;96.70;;;;;;5037183;28;20037;-74
2023/02/12 10:31:56;;;;;;;19.73;12.95;;;7.70;96.70;;;;;;5022419;28;20041;-76
2023/02/12 10:34:29;;;;;;;17.70;12.68;;;7.90;96.70;;;;;;5055932;28;20041;-75
2023/02/12 10:37:04;;;;;;;16.65;12.77;;;8.10;96.70;;;;;;5038299;28;20044;-75
2023/02/12 10:39:37;;;;;;;16.80;12.32;;;8.20;96.70;;;;;;5041465;28;20033;-75
2023/02/12 10:42:11;;;;;;;16.00;12.25;;;8.30;96.70;;;;;;5057696;28;20041;-76
2023/02/12 10:44:39;;;;;;;17.90;12.05;;;8.40;96.70;;;;;;5049135;28;20043;-76
2023/02/12 10:47:17;;;;;;;17.17;12.05;;;8.50;96.70;;;;;;5052700;28;20123;-75
2023/02/12 10:49:48;;;;;;;18.25;13.38;;;8.70;96.70;;;;;;5058985;28;20044;-75
2023/02/12 10:52:25;;;;;;;16.75;12.52;;;8.70;96.70;;;;;;5054985;28;20039;-75
2023/02/12 10:54:55;;;;;;;18.73;12.98;;;8.80;96.70;;;;;;5058534;28;20422;-75
2023/02/12 10:57:25;;;;;;;17.85;12.20;;;9.00;96.70;;;;;;5057912;28;20416;-74
2023/02/12 10:59:56;;;;;;;16.88;12.48;;;9.10;96.70;;;;;;5022910;28;20092;-73
2023/02/12 11:02:27;;;;;;;15.77;11.68;;;9.20;96.70;;;;;;5056818;28;20040;-74
2023/02/12 11:04:56;;;;;;;15.75;12.30;;;9.40;96.70;;;;;;5056861;28;20041;-74
2023/02/12 11:07:26;;;;;;;15.15;11.68;;;9.50;96.70;;;;;;5037111;28;20173;-74
2023/02/12 11:09:56;;;;;;;16.42;12.07;;;9.60;96.70;;;;;;5040116;28;20040;-74
2023/02/12 11:12:32;;;;;;;15.15;11.35;;;9.60;96.70;;;;;;5055061;28;20470;-74
2023/02/12 11:15:03;;;;;;;14.37;11.50;;;9.70;96.70;;;;;;5033648;28;20325;-75
2023/02/12 11:17:36;;;;;;;18.70;12.93;;;9.90;96.70;;;;;;5052213;28;20279;-75
2023/02/12 11:20:22;;;;;;;17.33;13.43;;;10.00;96.70;;;;;;5034002;28;20060;-75
2023/02/12 11:22:56;;;;;;;17.60;13.07;;;10.10;96.70;;;;;;5051846;28;20521;-75
2023/02/12 11:25:28;;;;;;;18.52;13.40;;;10.20;96.70;;;;;;5058714;28;20139;-76
2023/02/12 11:28:11;;;;;;;16.33;11.68;;;10.30;96.70;;;;;;5036216;28;20049;-75
2023/02/12 11:30:50;;;;;;;16.92;11.75;;;10.40;96.70;;;;;;5023488;28;20143;-74
2023/02/12 11:33:28;;;;;;;16.08;11.52;;;10.50;96.70;;;;;;5041059;28;20048;-74
2023/02/12 11:35:59;;;;;;;15.02;11.45;;;10.70;96.70;;;;;;5053041;28;20042;-73
2023/02/12 11:38:32;;;;;;;18.35;12.35;;;10.70;96.70;;;;;;5034720;28;20044;-73
2023/02/12 11:41:22;;;;;;;15.27;11.32;;;10.70;96.70;;;;;;5050268;28;20818;-74
2023/02/12 11:43:51;;;;;;;15.63;12.07;;;10.80;96.70;;;;;;5027481;28;20049;-74
2023/02/12 11:46:22;;;;;;;14.93;11.50;;;11.10;96.70;;;;;;5048779;28;20045;-75
2023/02/12 11:48:51;;;;;;;14.18;11.43;;;11.30;96.70;;;;;;5041686;28;20048;-74
2023/02/12 11:51:23;;;;;;;14.95;11.38;;;11.40;96.70;;;;;;5024518;28;20552;-72
2023/02/12 11:53:54;;;;;;;14.57;11.32;;;11.50;96.70;;;;;;5059628;28;20040;-74
2023/02/12 11:56:23;;;;;;;13.77;10.30;;;11.60;96.70;;;;;;5028321;28;20068;-74
2023/02/12 11:59:11;;;;;;;14.02;11.00;;;11.60;96.70;;;;;;5062297;28;20044;-75
2023/02/12 12:01:41;;;;;;;16.15;10.82;;;11.70;96.70;;;;;;5053061;28;20052;-74
2023/02/12 12:04:13;;;;;;;13.23;10.68;;;11.90;96.70;;;;;;5040675;28;20063;-75
2023/02/12 12:06:45;;;;;;;13.18;10.90;;;12.10;96.70;;;;;;5040159;28;20079;-74
2023/02/12 12:09:21;;;;;;;11.25;9.50;;;12.20;96.70;;;;;;5044588;28;20498;-76
2023/02/12 12:11:57;;;;;;;11.57;9.35;;;12.30;96.70;;;;;;5053051;28;20041;-76
2023/02/12 12:14:30;;;;;;;12.45;9.30;;;12.40;96.70;;;;;;5062517;28;20452;-75
2023/02/12 12:19:56;;;;;;;13.10;9.68;;;12.50;96.70;;;;;;5052019;28;20578;-74
2023/02/12 12:22:39;;;;;;;12.00;9.70;;;12.50;96.70;;;;;;5056374;28;20049;-75
2023/02/12 12:25:17;;;;;;;11.25;9.77;;;12.70;96.70;;;;;;5044296;28;20048;-75
2023/02/12 12:28:01;;;;;;;13.48;10.27;;;12.90;96.70;;;;;;5052512;28;20056;-75
2023/02/12 12:30:50;;;;;;;12.52;10.18;;;13.00;96.70;;;;;;5038119;28;20056;-76
2023/02/12 12:33:28;;;;;;;13.15;9.65;;;13.00;96.70;;;;;;5035983;28;20048;-75
2023/02/12 12:36:36;;;;;;;17.02;13.73;;;13.20;96.70;;;;;;5044384;28;20076;-76
2023/02/12 12:39:17;;;;;;;13.55;10.52;;;13.30;96.70;;;;;;5026279;28;20192;-76
2023/02/12 12:42:12;;;;;;;12.13;10.00;;;13.40;96.70;;;;;;5028653;28;20049;-73
2023/02/12 12:44:55;;;;;;;12.82;10.77;;;13.60;96.70;;;;;;5024193;28;20136;-73
2023/02/12 12:47:32;;;;;;;12.32;9.98;;;13.70;96.70;;;;;;5030009;28;20104;-74
2023/02/12 12:50:20;;;;;;;11.85;10.10;;;13.80;96.70;;;;;;5012207;28;20461;-72
2023/02/12 12:53:15;;;;;;;10.10;8.63;;;13.90;96.70;;;;;;5011797;28;20060;-75
2023/02/12 12:56:04;;;;;;;12.02;8.55;;;13.90;96.70;;;;;;5028774;28;20055;-75
2023/02/12 12:58:40;;;;;;;10.68;8.27;;;14.00;96.70;;;;;;5028056;28;20437;-73
2023/02/12 13:01:39;;;;;;;13.50;10.45;;;14.00;96.70;;;;;;5036743;28;20538;-74
2023/02/12 13:04:46;;;;;;;12.80;9.77;;;14.10;96.70;;;;;;5030860;28;20051;-75
2023/02/12 13:07:31;;;;;;;12.80;9.82;;;14.40;96.70;;;;;;4957758;28;20460;-73
2023/02/12 13:10:13;;;;;;;12.40;10.50;;;14.40;96.70;;;;;;4948522;28;20051;-73
2023/02/12 13:12:59;;;;;;;10.93;9.00;;;14.50;96.70;;;;;;5014124;28;20342;-73
2023/02/12 13:15:36;;;;;;;12.77;9.55;;;14.40;96.70;;;;;;5042261;28;20049;-74
2023/02/12 13:18:17;;;;;;;12.80;10.70;;;14.40;96.70;;;;;;5045987;28;20068;-74